CW4115 Weather Reports


Display with metric or nautical units.
time (UTC)temp
F
wind
direction
speed
MPH
gust
MPH
rain 1hr
in
rain 24hr
in
rain mn
in
humidity
%
barometer
mb
20220123150316 38 252 0.0 0.0 0.00 0.00 0.00 78 1021.4
20220123143318 40 252 0.0 1.0 0.00 0.00 0.00 77 1021.2
20220123140339 40 252 2.0 3.0 0.00 0.00 0.00 76 1021.1
20220123133318 40 256 0.0 0.0 0.00 0.00 0.00 77 1020.6
20220123130329 41 256 0.0 2.0 0.00 0.00 0.00 76 1020.6
20220123123335 41 256 0.0 2.0 0.00 0.00 0.00 76 1020.2
20220123120340 41 257 1.0 2.0 0.00 0.00 0.00 76 1020.3
20220123113314 42 257 1.0 2.0 0.00 0.00 0.00 75 1020.1
20220123110316 43 257 1.0 4.0 0.00 0.00 0.00 73 1020.1
20220123103338 43 167 0.0 2.0 0.00 0.00 0.00 73 1019.9
20220123100326 43 130 1.0 1.0 0.00 0.00 0.00 73 1019.5
20220123093330 44 130 0.0 1.0 0.00 0.00 0.00 70 1019.1
20220123090321 45 130 0.0 1.0 0.00 0.00 0.00 68 1019.0
20220123083340 48 126 1.0 3.0 0.00 0.00 0.00 62 1019.0
20220123080334 49 120 0.0 2.0 0.00 0.00 0.00 59 1019.1
20220123073326 50 140 2.0 3.0 0.00 0.00 0.00 57 1019.0
20220123070327 49 174 2.0 5.0 0.00 0.00 0.00 59 1018.8
20220123063331 50 173 1.0 3.0 0.00 0.00 0.00 59 1018.6
20220123060340 51 146 1.0 2.0 0.00 0.00 0.00 56 1018.4
20220123053342 52 149 1.0 3.0 0.00 0.00 0.00 54 1018.2
20220123050336 53 146 0.0 2.0 0.00 0.00 0.00 51 1017.9
20220123043339 54 163 1.0 3.0 0.00 0.00 0.00 51 1017.5
20220123040335 54 138 1.0 3.0 0.00 0.00 0.00 51 1017.0
20220123033338 55 244 1.0 4.0 0.00 0.00 0.00 49 1017.0
20220123030331 57 248 2.0 3.0 0.00 0.00 0.00 47 1016.6
20220123023343 59 263 0.0 4.0 0.00 0.00 0.00 44 1016.5
20220123020341 59 263 2.0 3.0 0.00 0.00 0.00 45 1016.5
20220123013346 61 267 2.0 5.0 0.00 0.00 0.00 42 1016.3
20220123010340 63 280 2.0 3.0 0.00 0.00 0.00 36 1016.2
20220123003345 65 281 1.0 3.0 0.00 0.00 0.00 30 1016.0
20220123000340 66 264 1.0 4.0 0.00 0.00 0.00 31 1015.9
20220122233322 66 37 5.0 7.0 0.00 0.00 0.00 30 1015.9
20220122230346 66 60 4.0 8.0 0.00 0.00 0.00 29 1015.6
20220122223324 66 103 2.0 6.0 0.00 0.00 0.00 27 1015.4
20220122220341 66 62 5.0 7.0 0.00 0.00 0.00 28 1015.4
20220122213343 66 290 3.0 6.0 0.00 0.00 0.00 32 1015.6
20220122210335 65 300 3.0 8.0 0.00 0.00 0.00 32 1016.0
20220122203341 64 294 4.0 10.0 0.00 0.00 0.00 33 1016.4
20220122200340 63 333 3.0 9.0 0.00 0.00 0.00 34 1016.7
20220122193340 61 313 3.0 8.0 0.00 0.00 0.00 36 1017.0
20220122190330 61 355 5.0 9.0 0.00 0.00 0.00 35 1018.0
20220122183325 60 355 3.0 8.0 0.00 0.00 0.00 34 1018.5
20220122180325 60 90 3.0 10.0 0.00 0.00 0.00 34 1018.4
20220122173345 59 213 1.0 2.0 0.00 0.00 0.00 35 1018.1
20220122170335 56 287 2.0 5.0 0.00 0.00 0.00 41 1018.0
20220122163339 54 296 1.0 3.0 0.00 0.00 0.00 44 1018.0
20220122160328 53 355 3.0 4.0 0.00 0.00 0.00 43 1018.0
20220122153325 52 309 0.0 2.0 0.00 0.00 0.00 44 1017.7